Terminal Aerodrome Forecast
Issued by NWS

Home | Current Version | Previous Version | Text Only | Print | Product List | Glossary On
Versions: 1 2 3 4 5 6 7 8 9 10 11 12 13 14 15 16 17 18 19 20 21 22 23
891
FTUS41 KPBZ 242332
TAFBVI
TAF
KBVI 242332Z 2500/2524 09007KT P6SM VCSH OVC015
     FM250300 12008KT 6SM SHRA OVC015
     FM250600 13008KT 3SM +SHRA OVC015 WS020/18040KT
     FM251000 16009KT 6SM -SHRA OVC015 WS020/20045KT
     FM251500 23011G20KT P6SM VCSH BKN030
     FM251800 25009KT P6SM SCT250
      AMD NOT SKED 2502/2512=

USA.gov is the U.S. government's official web portal to all federal, state and local government web resources and services.